sensor_id;sensor_type;location;lat;lon;timestamp;pressure;altitude;pressure_sealevel;temperature;humidity
9289;BME280;4683;50.864;12.086;2024-02-21T00:01:42;99845.59;;;9.74;100.00
9289;BME280;4683;50.864;12.086;2024-02-21T00:04:11;99835.34;;;9.71;100.00
9289;BME280;4683;50.864;12.086;2024-02-21T00:06:39;99832.88;;;9.70;100.00
9289;BME280;4683;50.864;12.086;2024-02-21T00:09:08;99825.97;;;9.69;100.00
9289;BME280;4683;50.864;12.086;2024-02-21T00:11:39;99825.16;;;9.68;100.00
9289;BME280;4683;50.864;12.086;2024-02-21T00:14:11;99826.09;;;9.67;100.00
9289;BME280;4683;50.864;12.086;2024-02-21T00:16:40;99826.78;;;9.69;100.00
9289;BME280;4683;50.864;12.086;2024-02-21T00:19:09;99816.72;;;9.64;100.00
9289;BME280;4683;50.864;12.086;2024-02-21T00:21:37;99815.06;;;9.63;100.00
9289;BME280;4683;50.864;12.086;2024-02-21T00:24:06;99817.84;;;9.62;100.00
9289;BME280;4683;50.864;12.086;2024-02-21T00:26:36;99813.88;;;9.58;100.00
9289;BME280;4683;50.864;12.086;2024-02-21T00:29:06;99811.91;;;9.60;100.00
9289;BME280;4683;50.864;12.086;2024-02-21T00:31:36;99809.13;;;9.61;100.00
9289;BME280;4683;50.864;12.086;2024-02-21T00:34:05;99805.50;;;9.62;100.00
9289;BME280;4683;50.864;12.086;2024-02-21T00:36:33;99792.84;;;9.66;100.00
9289;BME280;4683;50.864;12.086;2024-02-21T00:39:02;99788.41;;;9.66;100.00
9289;BME280;4683;50.864;12.086;2024-02-21T00:41:31;99786.75;;;9.65;100.00
9289;BME280;4683;50.864;12.086;2024-02-21T00:43:59;99788.56;;;9.65;100.00
9289;BME280;4683;50.864;12.086;2024-02-21T00:46:28;99776.69;;;9.61;100.00
9289;BME280;4683;50.864;12.086;2024-02-21T00:48:58;99774.75;;;9.37;100.00
9289;BME280;4683;50.864;12.086;2024-02-21T00:51:26;99769.59;;;9.27;100.00
9289;BME280;4683;50.864;12.086;2024-02-21T00:53:57;99770.81;;;9.15;100.00
9289;BME280;4683;50.864;12.086;2024-02-21T00:56:27;99771.94;;;9.12;100.00
9289;BME280;4683;50.864;12.086;2024-02-21T00:58:56;99775.34;;;9.05;100.00
9289;BME280;4683;50.864;12.086;2024-02-21T01:01:25;99759.56;;;9.05;100.00
9289;BME280;4683;50.864;12.086;2024-02-21T01:03:54;99759.56;;;9.05;100.00
9289;BME280;4683;50.864;12.086;2024-02-21T01:06:26;99751.97;;;9.02;100.00
9289;BME280;4683;50.864;12.086;2024-02-21T01:08:55;99750.16;;;9.02;100.00
9289;BME280;4683;50.864;12.086;2024-02-21T01:11:24;99747.38;;;9.04;100.00
9289;BME280;4683;50.864;12.086;2024-02-21T01:13:53;99744.06;;;9.02;100.00
9289;BME280;4683;50.864;12.086;2024-02-21T01:16:22;99743.53;;;8.98;100.00
9289;BME280;4683;50.864;12.086;2024-02-21T01:18:51;99748.50;;;9.01;100.00
9289;BME280;4683;50.864;12.086;2024-02-21T01:21:23;99740.44;;;9.03;100.00
9289;BME280;4683;50.864;12.086;2024-02-21T01:23:52;99737.75;;;8.95;100.00
9289;BME280;4683;50.864;12.086;2024-02-21T01:26:22;99735.81;;;8.97;100.00
9289;BME280;4683;50.864;12.086;2024-02-21T01:28:50;99742.41;;;9.01;100.00
9289;BME280;4683;50.864;12.086;2024-02-21T01:31:18;99740.44;;;9.03;100.00
9289;BME280;4683;50.864;12.086;2024-02-21T01:33:47;99736.53;;;9.07;100.00
9289;BME280;4683;50.864;12.086;2024-02-21T01:36:15;99724.38;;;9.06;100.00
9289;BME280;4683;50.864;12.086;2024-02-21T01:38:43;99719.09;;;9.06;100.00
9289;BME280;4683;50.864;12.086;2024-02-21T01:41:13;99730.97;;;9.10;100.00
9289;BME280;4683;50.864;12.086;2024-02-21T01:43:44;99725.53;;;9.11;100.00
9289;BME280;4683;50.864;12.086;2024-02-21T01:46:13;99716.66;;;9.12;100.00
9289;BME280;4683;50.864;12.086;2024-02-21T01:48:42;99712.72;;;9.08;100.00
9289;BME280;4683;50.864;12.086;2024-02-21T01:51:12;99699.69;;;9.07;100.00
9289;BME280;4683;50.864;12.086;2024-02-21T01:53:43;99700.31;;;9.01;100.00
9289;BME280;4683;50.864;12.086;2024-02-21T01:56:14;99705.88;;;8.98;100.00
9289;BME280;4683;50.864;12.086;2024-02-21T01:58:43;99692.72;;;8.98;100.00
9289;BME280;4683;50.864;12.086;2024-02-21T02:01:12;99698.00;;;8.98;100.00
9289;BME280;4683;50.864;12.086;2024-02-21T02:03:48;99690.25;;;8.96;100.00
9289;BME280;4683;50.864;12.086;2024-02-21T02:06:18;99692.88;;;8.96;100.00
9289;BME280;4683;50.864;12.086;2024-02-21T02:08:47;99692.44;;;9.01;100.00
9289;BME280;4683;50.864;12.086;2024-02-21T02:11:17;99686.19;;;9.02;100.00
9289;BME280;4683;50.864;12.086;2024-02-21T02:13:50;99687.69;;;9.04;100.00
9289;BME280;4683;50.864;12.086;2024-02-21T02:16:18;99683.38;;;9.03;100.00
9289;BME280;4683;50.864;12.086;2024-02-21T02:18:47;99675.66;;;9.02;100.00
9289;BME280;4683;50.864;12.086;2024-02-21T02:21:27;99671.03;;;8.96;100.00
9289;BME280;4683;50.864;12.086;2024-02-21T02:23:58;99664.94;;;8.95;100.00
9289;BME280;4683;50.864;12.086;2024-02-21T02:26:26;99661.09;;;8.89;100.00
9289;BME280;4683;50.864;12.086;2024-02-21T02:28:55;99657.28;;;8.84;100.00
9289;BME280;4683;50.864;12.086;2024-02-21T02:31:24;99659.91;;;8.84;100.00
9289;BME280;4683;50.864;12.086;2024-02-21T02:33:52;99658.44;;;8.81;100.00
9289;BME280;4683;50.864;12.086;2024-02-21T02:36:21;99652.03;;;8.84;100.00
9289;BME280;4683;50.864;12.086;2024-02-21T02:38:50;99653.19;;;8.89;100.00
9289;BME280;4683;50.864;12.086;2024-02-21T02:41:20;99639.03;;;9.08;100.00
9289;BME280;4683;50.864;12.086;2024-02-21T02:43:49;99642.41;;;9.27;100.00
9289;BME280;4683;50.864;12.086;2024-02-21T02:46:19;99640.31;;;9.38;100.00
9289;BME280;4683;50.864;12.086;2024-02-21T02:48:47;99643.16;;;9.53;100.00
9289;BME280;4683;50.864;12.086;2024-02-21T02:51:15;99639.72;;;9.61;100.00
9289;BME280;4683;50.864;12.086;2024-02-21T02:53:43;99638.44;;;9.65;100.00
9289;BME280;4683;50.864;12.086;2024-02-21T02:56:15;99632.50;;;9.71;100.00
9289;BME280;4683;50.864;12.086;2024-02-21T02:58:46;99637.16;;;9.77;100.00
9289;BME280;4683;50.864;12.086;2024-02-21T03:01:14;99639.44;;;9.80;100.00
9289;BME280;4683;50.864;12.086;2024-02-21T03:03:43;99633.00;;;9.75;100.00
9289;BME280;4683;50.864;12.086;2024-02-21T03:06:14;99640.75;;;9.76;100.00
9289;BME280;4683;50.864;12.086;2024-02-21T03:08:45;99648.34;;;9.79;100.00
9289;BME280;4683;50.864;12.086;2024-02-21T03:11:14;99639.78;;;9.85;100.00
9289;BME280;4683;50.864;12.086;2024-02-21T03:13:45;99649.66;;;9.83;100.00
9289;BME280;4683;50.864;12.086;2024-02-21T03:16:17;99652.13;;;9.85;100.00
9289;BME280;4683;50.864;12.086;2024-02-21T03:18:46;99652.94;;;9.85;100.00
9289;BME280;4683;50.864;12.086;2024-02-21T03:21:15;99646.34;;;9.73;100.00
9289;BME280;4683;50.864;12.086;2024-02-21T03:23:44;99651.75;;;9.72;100.00
9289;BME280;4683;50.864;12.086;2024-02-21T03:26:14;99648.16;;;9.73;100.00
9289;BME280;4683;50.864;12.086;2024-02-21T03:28:47;99652.63;;;9.72;100.00
9289;BME280;4683;50.864;12.086;2024-02-21T03:31:15;99641.91;;;9.74;100.00
9289;BME280;4683;50.864;12.086;2024-02-21T03:33:44;99637.06;;;9.53;100.00
9289;BME280;4683;50.864;12.086;2024-02-21T03:36:16;99642.88;;;9.30;100.00
9289;BME280;4683;50.864;12.086;2024-02-21T03:38:46;99641.22;;;9.21;100.00
9289;BME280;4683;50.864;12.086;2024-02-21T03:41:14;99635.72;;;9.06;100.00
9289;BME280;4683;50.864;12.086;2024-02-21T03:43:43;99633.19;;;8.97;100.00
9289;BME280;4683;50.864;12.086;2024-02-21T03:46:14;99629.84;;;8.86;100.00
9289;BME280;4683;50.864;12.086;2024-02-21T03:48:42;99630.00;;;8.85;100.00
9289;BME280;4683;50.864;12.086;2024-02-21T03:51:11;99630.44;;;8.72;100.00
9289;BME280;4683;50.864;12.086;2024-02-21T03:53:41;99626.47;;;8.68;100.00
9289;BME280;4683;50.864;12.086;2024-02-21T03:56:10;99621.50;;;8.65;100.00
9289;BME280;4683;50.864;12.086;2024-02-21T03:58:40;99622.94;;;8.59;100.00
9289;BME280;4683;50.864;12.086;2024-02-21T04:01:10;99621.13;;;8.60;100.00
9289;BME280;4683;50.864;12.086;2024-02-21T04:03:42;99624.59;;;8.60;100.00
9289;BME280;4683;50.864;12.086;2024-02-21T04:06:12;99616.84;;;8.59;100.00
9289;BME280;4683;50.864;12.086;2024-02-21T04:08:40;99611.72;;;8.57;100.00
9289;BME280;4683;50.864;12.086;2024-02-21T04:11:09;99610.56;;;8.52;100.00
9289;BME280;4683;50.864;12.086;2024-02-21T04:13:39;99607.94;;;8.52;100.00
9289;BME280;4683;50.864;12.086;2024-02-21T04:16:08;99610.84;;;8.49;100.00
9289;BME280;4683;50.864;12.086;2024-02-21T04:18:40;99603.50;;;8.52;100.00
9289;BME280;4683;50.864;12.086;2024-02-21T04:21:10;99593.66;;;8.54;100.00
9289;BME280;4683;50.864;12.086;2024-02-21T04:23:39;99601.38;;;8.56;100.00
9289;BME280;4683;50.864;12.086;2024-02-21T04:26:08;99588.41;;;8.54;100.00
9289;BME280;4683;50.864;12.086;2024-02-21T04:28:36;99586.53;;;8.47;100.00
9289;BME280;4683;50.864;12.086;2024-02-21T04:31:05;99583.22;;;8.45;100.00
9289;BME280;4683;50.864;12.086;2024-02-21T04:33:34;99568.06;;;8.38;100.00
9289;BME280;4683;50.864;12.086;2024-02-21T04:36:06;99557.25;;;8.42;100.00
9289;BME280;4683;50.864;12.086;2024-02-21T04:38:35;99558.91;;;8.43;100.00
9289;BME280;4683;50.864;12.086;2024-02-21T04:41:05;99562.00;;;8.38;100.00
9289;BME280;4683;50.864;12.086;2024-02-21T04:43:35;99550.78;;;8.36;100.00
9289;BME280;4683;50.864;12.086;2024-02-21T04:46:05;99543.75;;;8.36;100.00
9289;BME280;4683;50.864;12.086;2024-02-21T04:48:35;99543.81;;;8.27;100.00
9289;BME280;4683;50.864;12.086;2024-02-21T04:51:12;99540.22;;;8.28;100.00
9289;BME280;4683;50.864;12.086;2024-02-21T04:53:41;99541.56;;;8.32;100.00
9289;BME280;4683;50.864;12.086;2024-02-21T04:56:11;99533.50;;;8.33;100.00
9289;BME280;4683;50.864;12.086;2024-02-21T04:58:41;99538.50;;;8.36;100.00
9289;BME280;4683;50.864;12.086;2024-02-21T05:01:11;99534.06;;;8.37;100.00
9289;BME280;4683;50.864;12.086;2024-02-21T05:03:39;99532.38;;;8.36;100.00
9289;BME280;4683;50.864;12.086;2024-02-21T05:06:11;99538.16;;;8.39;100.00
9289;BME280;4683;50.864;12.086;2024-02-21T05:08:41;99531.19;;;8.30;100.00
9289;BME280;4683;50.864;12.086;2024-02-21T05:11:12;99535.97;;;8.35;100.00
9289;BME280;4683;50.864;12.086;2024-02-21T05:13:43;99536.06;;;8.43;100.00
9289;BME280;4683;50.864;12.086;2024-02-21T05:16:13;99523.44;;;8.47;100.00
9289;BME280;4683;50.864;12.086;2024-02-21T05:18:43;99521.78;;;8.46;100.00
9289;BME280;4683;50.864;12.086;2024-02-21T05:21:13;99515.34;;;8.40;100.00
9289;BME280;4683;50.864;12.086;2024-02-21T05:23:42;99519.25;;;8.36;100.00
9289;BME280;4683;50.864;12.086;2024-02-21T05:26:11;99518.13;;;8.38;100.00
9289;BME280;4683;50.864;12.086;2024-02-21T05:28:42;99506.56;;;8.31;100.00
9289;BME280;4683;50.864;12.086;2024-02-21T05:31:11;99510.16;;;8.30;100.00
9289;BME280;4683;50.864;12.086;2024-02-21T05:33:43;99510.47;;;8.27;100.00
9289;BME280;4683;50.864;12.086;2024-02-21T05:36:13;99502.25;;;8.30;100.00
9289;BME280;4683;50.864;12.086;2024-02-21T05:38:43;99509.78;;;8.25;100.00
9289;BME280;4683;50.864;12.086;2024-02-21T05:41:11;99497.94;;;8.21;100.00
9289;BME280;4683;50.864;12.086;2024-02-21T05:43:41;99499.63;;;8.22;100.00
9289;BME280;4683;50.864;12.086;2024-02-21T05:46:12;99485.13;;;8.18;100.00
9289;BME280;4683;50.864;12.086;2024-02-21T05:48:43;99478.06;;;8.19;100.00
9289;BME280;4683;50.864;12.086;2024-02-21T05:51:15;99472.00;;;8.18;100.00
9289;BME280;4683;50.864;12.086;2024-02-21T05:53:44;99473.47;;;8.21;100.00
9289;BME280;4683;50.864;12.086;2024-02-21T05:56:15;99487.06;;;8.16;100.00
9289;BME280;4683;50.864;12.086;2024-02-21T05:58:45;99478.88;;;8.19;100.00
9289;BME280;4683;50.864;12.086;2024-02-21T06:01:13;99472.00;;;8.18;100.00
9289;BME280;4683;50.864;12.086;2024-02-21T06:03:42;99469.38;;;8.18;100.00
9289;BME280;4683;50.864;12.086;2024-02-21T06:06:13;99461.78;;;8.15;100.00
9289;BME280;4683;50.864;12.086;2024-02-21T06:08:44;99465.03;;;8.09;100.00
9289;BME280;4683;50.864;12.086;2024-02-21T06:11:14;99457.16;;;8.09;100.00
9289;BME280;4683;50.864;12.086;2024-02-21T06:13:45;99452.38;;;8.04;100.00
9289;BME280;4683;50.864;12.086;2024-02-21T06:16:13;99454.13;;;8.04;100.00
9289;BME280;4683;50.864;12.086;2024-02-21T06:18:43;99460.75;;;8.08;100.00
9289;BME280;4683;50.864;12.086;2024-02-21T06:21:11;99464.06;;;8.10;100.00
9289;BME280;4683;50.864;12.086;2024-02-21T06:23:43;99465.91;;;8.18;100.00
9289;BME280;4683;50.864;12.086;2024-02-21T06:26:11;99471.47;;;8.14;100.00
9289;BME280;4683;50.864;12.086;2024-02-21T06:28:40;99469.38;;;8.18;100.00
9289;BME280;4683;50.864;12.086;2024-02-21T06:31:11;99468.06;;;8.22;100.00
9289;BME280;4683;50.864;12.086;2024-02-21T06:33:42;99471.34;;;8.24;100.00
9289;BME280;4683;50.864;12.086;2024-02-21T06:36:11;99463.13;;;8.19;100.00
9289;BME280;4683;50.864;12.086;2024-02-21T06:38:39;99467.84;;;8.16;100.00
9289;BME280;4683;50.864;12.086;2024-02-21T06:41:16;99463.75;;;8.13;100.00
9289;BME280;4683;50.864;12.086;2024-02-21T06:43:48;99466.28;;;8.23;100.00
9289;BME280;4683;50.864;12.086;2024-02-21T06:46:27;99475.50;;;8.27;100.00
9289;BME280;4683;50.864;12.086;2024-02-21T06:48:59;99474.69;;;8.34;100.00
9289;BME280;4683;50.864;12.086;2024-02-21T06:51:28;99480.34;;;8.39;100.00
9289;BME280;4683;50.864;12.086;2024-02-21T06:53:58;99489.81;;;8.32;100.00
9289;BME280;4683;50.864;12.086;2024-02-21T06:56:28;99488.66;;;8.35;100.00
9289;BME280;4683;50.864;12.086;2024-02-21T06:58:58;99487.28;;;8.41;100.00
9289;BME280;4683;50.864;12.086;2024-02-21T07:01:27;99488.09;;;8.41;100.00
9289;BME280;4683;50.864;12.086;2024-02-21T07:03:56;99492.19;;;8.44;100.00
9289;BME280;4683;50.864;12.086;2024-02-21T07:06:26;99489.22;;;8.38;100.00
9289;BME280;4683;50.864;12.086;2024-02-21T07:08:54;99499.47;;;8.50;100.00
9289;BME280;4683;50.864;12.086;2024-02-21T07:11:27;99495.91;;;8.59;100.00
9289;BME280;4683;50.864;12.086;2024-02-21T07:13:56;99477.84;;;8.64;100.00
9289;BME280;4683;50.864;12.086;2024-02-21T07:16:24;99484.75;;;8.65;100.00
9289;BME280;4683;50.864;12.086;2024-02-21T07:18:53;99486.59;;;8.73;100.00
9289;BME280;4683;50.864;12.086;2024-02-21T07:21:23;99494.69;;;8.87;100.00
9289;BME280;4683;50.864;12.086;2024-02-21T07:23:52;99512.44;;;8.85;100.00
9289;BME280;4683;50.864;12.086;2024-02-21T07:26:21;99518.25;;;8.97;100.00
9289;BME280;4683;50.864;12.086;2024-02-21T07:28:57;99514.78;;;8.97;100.00
9289;BME280;4683;50.864;12.086;2024-02-21T07:31:26;99510.09;;;9.08;100.00
9289;BME280;4683;50.864;12.086;2024-02-21T07:33:55;99520.31;;;9.20;100.00
9289;BME280;4683;50.864;12.086;2024-02-21T07:36:29;99525.03;;;9.08;100.00
9289;BME280;4683;50.864;12.086;2024-02-21T07:39:00;99523.56;;;9.05;100.00
9289;BME280;4683;50.864;12.086;2024-02-21T07:41:29;99526.66;;;9.01;100.00
9289;BME280;4683;50.864;12.086;2024-02-21T07:44:01;99522.88;;;9.03;100.00
9289;BME280;4683;50.864;12.086;2024-02-21T07:46:30;99531.31;;;9.15;100.00
9289;BME280;4683;50.864;12.086;2024-02-21T07:49:04;99508.97;;;9.27;100.00
9289;BME280;4683;50.864;12.086;2024-02-21T07:51:35;99498.94;;;9.23;100.00
9289;BME280;4683;50.864;12.086;2024-02-21T07:54:05;99496.47;;;9.29;100.00
9289;BME280;4683;50.864;12.086;2024-02-21T07:56:35;99493.84;;;9.29;100.00
9289;BME280;4683;50.864;12.086;2024-02-21T07:59:05;99505.38;;;9.45;100.00
9289;BME280;4683;50.864;12.086;2024-02-21T08:01:34;99507.88;;;9.54;100.00
9289;BME280;4683;50.864;12.086;2024-02-21T08:04:04;99503.09;;;9.58;100.00
9289;BME280;4683;50.864;12.086;2024-02-21T08:06:32;99514.97;;;9.54;100.00
9289;BME280;4683;50.864;12.086;2024-02-21T08:09:02;99505.69;;;9.33;100.00
9289;BME280;4683;50.864;12.086;2024-02-21T08:11:32;99506.34;;;9.27;100.00
9289;BME280;4683;50.864;12.086;2024-02-21T08:14:00;99506.03;;;9.47;100.00
9289;BME280;4683;50.864;12.086;2024-02-21T08:16:31;99522.84;;;9.54;100.00
9289;BME280;4683;50.864;12.086;2024-02-21T08:19:04;99524.16;;;9.58;100.00
9289;BME280;4683;50.864;12.086;2024-02-21T08:21:33;99534.19;;;9.62;100.00
9289;BME280;4683;50.864;12.086;2024-02-21T08:24:04;99535.38;;;9.68;100.00
9289;BME280;4683;50.864;12.086;2024-02-21T08:26:34;99529.09;;;9.53;100.00
9289;BME280;4683;50.864;12.086;2024-02-21T08:29:03;99530.75;;;9.54;100.00
9289;BME280;4683;50.864;12.086;2024-02-21T08:31:34;99531.06;;;9.51;100.00
9289;BME280;4683;50.864;12.086;2024-02-21T08:34:03;99533.88;;;9.57;100.00
9289;BME280;4683;50.864;12.086;2024-02-21T08:36:32;99531.38;;;9.39;100.00
9289;BME280;4683;50.864;12.086;2024-02-21T08:39:03;99530.06;;;9.52;100.00
9289;BME280;4683;50.864;12.086;2024-02-21T08:41:33;99523.16;;;9.51;100.00
9289;BME280;4683;50.864;12.086;2024-02-21T08:44:02;99516.88;;;9.35;100.00
9289;BME280;4683;50.864;12.086;2024-02-21T08:46:34;99513.72;;;9.24;100.00
9289;BME280;4683;50.864;12.086;2024-02-21T08:49:06;99514.88;;;9.29;100.00
9289;BME280;4683;50.864;12.086;2024-02-21T08:51:36;99509.94;;;9.26;100.00
9289;BME280;4683;50.864;12.086;2024-02-21T08:54:06;99497.13;;;9.39;100.00
9289;BME280;4683;50.864;12.086;2024-02-21T08:56:35;99503.06;;;9.42;100.00
9289;BME280;4683;50.864;12.086;2024-02-21T08:59:04;99492.88;;;9.38;100.00
9289;BME280;4683;50.864;12.086;2024-02-21T09:01:35;99479.06;;;9.53;100.00
9289;BME280;4683;50.864;12.086;2024-02-21T09:04:04;99477.09;;;9.55;100.00
9289;BME280;4683;50.864;12.086;2024-02-21T09:06:33;99475.94;;;9.57;100.00
9289;BME280;4683;50.864;12.086;2024-02-21T09:09:04;99475.44;;;9.54;100.00
9289;BME280;4683;50.864;12.086;2024-02-21T09:11:35;99475.09;;;9.57;100.00
9289;BME280;4683;50.864;12.086;2024-02-21T09:14:05;99471.81;;;9.87;100.00
9289;BME280;4683;50.864;12.086;2024-02-21T09:16:42;99471.66;;;9.97;100.00
9289;BME280;4683;50.864;12.086;2024-02-21T09:19:11;99471.31;;;10.00;100.00
9289;BME280;4683;50.864;12.086;2024-02-21T09:21:42;99473.78;;;9.94;100.00
9289;BME280;4683;50.864;12.086;2024-02-21T09:24:11;99470.50;;;9.91;100.00
9289;BME280;4683;50.864;12.086;2024-02-21T09:26:49;99457.16;;;10.01;100.00
9289;BME280;4683;50.864;12.086;2024-02-21T09:29:18;99464.88;;;9.95;100.00
9289;BME280;4683;50.864;12.086;2024-02-21T09:31:48;99460.97;;;9.90;100.00
9289;BME280;4683;50.864;12.086;2024-02-21T09:34:17;99464.53;;;10.14;100.00
9289;BME280;4683;50.864;12.086;2024-02-21T09:36:51;99455.94;;;10.20;100.00
9289;BME280;4683;50.864;12.086;2024-02-21T09:39:21;99457.63;;;10.05;100.00
9289;BME280;4683;50.864;12.086;2024-02-21T09:41:56;99451.38;;;10.14;100.00
9289;BME280;4683;50.864;12.086;2024-02-21T09:44:36;99458.59;;;10.12;100.00
9289;BME280;4683;50.864;12.086;2024-02-21T09:47:15;99457.44;;;10.31;100.00
9289;BME280;4683;50.864;12.086;2024-02-21T09:49:46;99453.66;;;10.33;100.00
9289;BME280;4683;50.864;12.086;2024-02-21T09:52:17;99453.00;;;10.31;100.00
9289;BME280;4683;50.864;12.086;2024-02-21T09:54:48;99447.56;;;10.25;100.00
9289;BME280;4683;50.864;12.086;2024-02-21T09:57:20;99450.31;;;10.39;100.00
9289;BME280;4683;50.864;12.086;2024-02-21T09:59:53;99456.09;;;10.43;100.00
9289;BME280;4683;50.864;12.086;2024-02-21T10:02:26;99451.59;;;10.52;100.00
9289;BME280;4683;50.864;12.086;2024-02-21T10:04:59;99447.94;;;10.61;100.00
9289;BME280;4683;50.864;12.086;2024-02-21T10:07:27;99448.94;;;10.60;100.00
9289;BME280;4683;50.864;12.086;2024-02-21T10:10:01;99444.78;;;10.65;100.00
9289;BME280;4683;50.864;12.086;2024-02-21T10:12:32;99440.28;;;10.82;100.00
9289;BME280;4683;50.864;12.086;2024-02-21T10:15:02;99438.56;;;10.89;100.00
9289;BME280;4683;50.864;12.086;2024-02-21T10:17:33;99435.88;;;10.98;100.00
9289;BME280;4683;50.864;12.086;2024-02-21T10:20:08;99436.91;;;10.97;100.00
9289;BME280;4683;50.864;12.086;2024-02-21T10:22:38;99426.88;;;11.15;100.00
9289;BME280;4683;50.864;12.086;2024-02-21T10:25:08;99431.88;;;11.10;100.00
9289;BME280;4683;50.864;12.086;2024-02-21T10:27:37;99433.72;;;11.01;100.00
9289;BME280;4683;50.864;12.086;2024-02-21T10:30:18;99421.34;;;11.02;100.00
9289;BME280;4683;50.864;12.086;2024-02-21T10:32:53;99425.53;;;11.19;100.00
9289;BME280;4683;50.864;12.086;2024-02-21T10:35:30;99421.19;;;11.49;100.00
9289;BME280;4683;50.864;12.086;2024-02-21T10:37:59;99410.50;;;11.42;100.00
9289;BME280;4683;50.864;12.086;2024-02-21T10:40:29;99411.38;;;11.35;100.00
9289;BME280;4683;50.864;12.086;2024-02-21T10:42:59;99411.22;;;11.36;100.00
9289;BME280;4683;50.864;12.086;2024-02-21T10:45:30;99407.91;;;11.57;100.00
9289;BME280;4683;50.864;12.086;2024-02-21T10:48:11;99399.13;;;11.42;100.00
9289;BME280;4683;50.864;12.086;2024-02-21T10:50:56;99396.19;;;11.37;100.00
9289;BME280;4683;50.864;12.086;2024-02-21T10:53:35;99397.66;;;11.39;100.00
9289;BME280;4683;50.864;12.086;2024-02-21T10:56:22;99385.25;;;11.63;100.00
9289;BME280;4683;50.864;12.086;2024-02-21T10:58:51;99379.84;;;11.56;100.00
9289;BME280;4683;50.864;12.086;2024-02-21T11:01:21;99373.59;;;11.72;100.00
9289;BME280;4683;50.864;12.086;2024-02-21T11:03:55;99363.16;;;11.56;100.00
9289;BME280;4683;50.864;12.086;2024-02-21T11:06:25;99360.88;;;11.53;100.00
9289;BME280;4683;50.864;12.086;2024-02-21T11:09:03;99347.84;;;11.36;100.00
9289;BME280;4683;50.864;12.086;2024-02-21T11:11:38;99343.13;;;11.61;100.00
9289;BME280;4683;50.864;12.086;2024-02-21T11:14:08;99343.13;;;11.76;100.00
9289;BME280;4683;50.864;12.086;2024-02-21T11:16:40;99333.34;;;11.85;100.00
9289;BME280;4683;50.864;12.086;2024-02-21T11:19:20;99345.38;;;12.17;100.00
9289;BME280;4683;50.864;12.086;2024-02-21T11:21:51;99331.81;;;12.05;100.00
9289;BME280;4683;50.864;12.086;2024-02-21T11:24:31;99339.63;;;11.84;100.00
9289;BME280;4683;50.864;12.086;2024-02-21T11:27:11;99332.97;;;12.17;100.00
9289;BME280;4683;50.864;12.086;2024-02-21T11:29:43;99330.06;;;11.98;100.00
9289;BME280;4683;50.864;12.086;2024-02-21T11:32:14;99324.41;;;12.01;100.00
9289;BME280;4683;50.864;12.086;2024-02-21T11:34:55;99324.63;;;11.99;100.00
9289;BME280;4683;50.864;12.086;2024-02-21T11:37:25;99321.00;;;12.22;100.00
9289;BME280;4683;50.864;12.086;2024-02-21T11:39:56;99317.81;;;12.26;100.00
9289;BME280;4683;50.864;12.086;2024-02-21T11:42:25;99306.16;;;12.35;100.00
9289;BME280;4683;50.864;12.086;2024-02-21T11:44:54;99302.38;;;12.44;100.00
9289;BME280;4683;50.864;12.086;2024-02-21T11:47:25;99287.06;;;12.40;100.00
9289;BME280;4683;50.864;12.086;2024-02-21T11:49:58;99287.34;;;12.30;100.00
9289;BME280;4683;50.864;12.086;2024-02-21T11:52:26;99274.47;;;12.42;100.00
9289;BME280;4683;50.864;12.086;2024-02-21T11:54:55;99268.50;;;12.55;100.00
9289;BME280;4683;50.864;12.086;2024-02-21T11:57:33;99260.97;;;12.37;100.00
9289;BME280;4683;50.864;12.086;2024-02-21T12:00:16;99259.91;;;12.53;100.00
9289;BME280;4683;50.864;12.086;2024-02-21T12:02:49;99261.06;;;12.65;100.00
9289;BME280;4683;50.864;12.086;2024-02-21T12:05:21;99262.19;;;12.56;100.00
9289;BME280;4683;50.864;12.086;2024-02-21T12:07:51;99260.28;;;12.28;100.00
9289;BME280;4683;50.864;12.086;2024-02-21T12:10:20;99260.88;;;12.30;100.00
9289;BME280;4683;50.864;12.086;2024-02-21T12:12:49;99248.16;;;12.19;100.00
9289;BME280;4683;50.864;12.086;2024-02-21T12:15:20;99246.69;;;12.16;100.00
9289;BME280;4683;50.864;12.086;2024-02-21T12:17:49;99229.91;;;12.24;100.00
9289;BME280;4683;50.864;12.086;2024-02-21T12:20:20;99233.94;;;12.20;100.00
9289;BME280;4683;50.864;12.086;2024-02-21T12:22:50;99240.38;;;12.32;100.00
9289;BME280;4683;50.864;12.086;2024-02-21T12:25:22;99220.97;;;12.25;100.00
9289;BME280;4683;50.864;12.086;2024-02-21T12:27:54;99213.66;;;12.27;100.00
9289;BME280;4683;50.864;12.086;2024-02-21T12:30:29;99210.06;;;12.35;100.00
9289;BME280;4683;50.864;12.086;2024-02-21T12:33:00;99208.13;;;12.43;100.00
9289;BME280;4683;50.864;12.086;2024-02-21T12:35:30;99198.66;;;12.77;100.00
9289;BME280;4683;50.864;12.086;2024-02-21T12:37:59;99193.78;;;12.81;100.00
9289;BME280;4683;50.864;12.086;2024-02-21T12:40:28;99192.22;;;12.86;100.00
9289;BME280;4683;50.864;12.086;2024-02-21T12:42:59;99179.13;;;12.78;100.00
9289;BME280;4683;50.864;12.086;2024-02-21T12:45:30;99174.44;;;12.80;100.00
9289;BME280;4683;50.864;12.086;2024-02-21T12:48:02;99170.13;;;12.73;100.00
9289;BME280;4683;50.864;12.086;2024-02-21T12:50:32;99166.47;;;12.74;100.00
9289;BME280;4683;50.864;12.086;2024-02-21T12:53:01;99165.09;;;12.56;100.00
9289;BME280;4683;50.864;12.086;2024-02-21T12:55:30;99155.97;;;12.59;100.00
9289;BME280;4683;50.864;12.086;2024-02-21T12:58:04;99148.34;;;12.49;99.69
9289;BME280;4683;50.864;12.086;2024-02-21T13:00:37;99147.50;;;12.49;100.00
9289;BME280;4683;50.864;12.086;2024-02-21T13:03:11;99151.66;;;12.58;99.06
9289;BME280;4683;50.864;12.086;2024-02-21T13:05:41;99140.84;;;12.53;99.33
9289;BME280;4683;50.864;12.086;2024-02-21T13:08:10;99138.03;;;12.82;100.00
9289;BME280;4683;50.864;12.086;2024-02-21T13:10:40;99127.06;;;12.85;100.00
9289;BME280;4683;50.864;12.086;2024-02-21T13:13:09;99116.94;;;12.95;100.00
9289;BME280;4683;50.864;12.086;2024-02-21T13:15:38;99119.38;;;12.97;100.00
9289;BME280;4683;50.864;12.086;2024-02-21T13:18:10;99123.06;;;13.03;100.00
9289;BME280;4683;50.864;12.086;2024-02-21T13:20:40;99102.69;;;13.03;100.00
9289;BME280;4683;50.864;12.086;2024-02-21T13:23:09;99106.78;;;13.06;100.00
9289;BME280;4683;50.864;12.086;2024-02-21T13:25:37;99104.00;;;13.14;99.98